createdAt,value
2023-01-29T00:01:40.200Z,2.58
2023-01-29T00:04:42.808Z,2.75
2023-01-29T00:07:44.922Z,2.61
2023-01-29T00:10:47.314Z,2.88
2023-01-29T00:13:50.599Z,2.97
2023-01-29T00:16:53.790Z,2.66
2023-01-29T00:19:55.985Z,2.71
2023-01-29T00:22:58.200Z,2.46
2023-01-29T00:26:00.663Z,2.65
2023-01-29T00:29:04.270Z,2.47
2023-01-29T00:32:06.862Z,2.59
2023-01-29T00:35:09.673Z,2.35
2023-01-29T00:38:11.720Z,2.35
2023-01-29T00:41:34.581Z,2.26
2023-01-29T00:44:55.505Z,2.13
2023-01-29T00:47:57.478Z,1.97
2023-01-29T00:51:01.641Z,2.03
2023-01-29T00:54:07.084Z,2.04
2023-01-29T00:57:09.025Z,1.77
2023-01-29T01:00:14.611Z,1.85
2023-01-29T01:03:18.280Z,1.90
2023-01-29T01:06:20.421Z,1.78
2023-01-29T01:09:42.433Z,1.71
2023-01-29T01:12:44.725Z,1.66
2023-01-29T01:15:46.916Z,1.51
2023-01-29T01:18:49.069Z,1.66
2023-01-29T01:21:51.536Z,1.66
2023-01-29T01:24:53.692Z,1.69
2023-01-29T01:27:57.587Z,1.71
2023-01-29T01:31:08.679Z,1.68
2023-01-29T01:34:10.795Z,1.45
2023-01-29T01:37:12.905Z,1.50
2023-01-29T01:40:18.691Z,1.57
2023-01-29T01:43:20.942Z,1.53
2023-01-29T01:46:24.170Z,1.49
2023-01-29T01:49:26.886Z,1.39
2023-01-29T01:52:32.837Z,1.44
2023-01-29T01:55:42.346Z,1.33
2023-01-29T01:58:51.173Z,1.20
2023-01-29T02:01:54.677Z,1.35
2023-01-29T02:05:15.542Z,1.43
2023-01-29T02:08:53.516Z,1.23
2023-01-29T02:11:58.408Z,1.02
2023-01-29T02:15:03.684Z,1.13
2023-01-29T02:18:06.635Z,1.26
2023-01-29T02:21:25.425Z,1.17
2023-01-29T02:24:27.477Z,1.16
2023-01-29T02:27:49.215Z,1.17
2023-01-29T02:31:10.088Z,1.17
2023-01-29T02:34:54.436Z,0.99
2023-01-29T02:38:24.570Z,0.81
2023-01-29T02:41:42.175Z,0.75
2023-01-29T02:45:14.681Z,0.82
2023-01-29T02:48:23.231Z,0.84
2023-01-29T02:51:34.486Z,0.81
2023-01-29T02:54:51.098Z,0.70
2023-01-29T02:58:00.100Z,0.73
2023-01-29T03:01:13.952Z,0.69
2023-01-29T03:04:29.970Z,0.87
2023-01-29T03:07:46.831Z,0.86
2023-01-29T03:10:56.071Z,0.81
2023-01-29T03:14:06.625Z,0.75
2023-01-29T03:17:10.574Z,0.76
2023-01-29T03:20:19.582Z,0.76
2023-01-29T03:23:39.183Z,0.86
2023-01-29T03:27:02.618Z,0.99
2023-01-29T03:30:27.032Z,1.20
2023-01-29T03:33:35.750Z,1.24
2023-01-29T03:36:51.189Z,1.12
2023-01-29T03:39:53.603Z,1.17
2023-01-29T03:43:14.027Z,1.26
2023-01-29T03:46:35.677Z,1.29
2023-01-29T03:49:46.365Z,1.38
2023-01-29T03:52:51.188Z,1.24
2023-01-29T03:55:59.830Z,1.24
2023-01-29T03:59:30.795Z,1.29
2023-01-29T04:02:42.825Z,1.30
2023-01-29T04:06:12.390Z,1.26
2023-01-29T04:09:22.637Z,1.61
2023-01-29T04:12:30.748Z,1.80
2023-01-29T04:15:41.068Z,1.83
2023-01-29T04:18:47.113Z,1.46
2023-01-29T04:21:53.317Z,1.36
2023-01-29T04:24:55.615Z,1.46
2023-01-29T04:28:23.479Z,1.51
2023-01-29T04:31:33.866Z,1.61
2023-01-29T04:35:01.771Z,1.53
2023-01-29T04:38:17.168Z,1.55
2023-01-29T04:41:27.743Z,1.44
2023-01-29T04:45:06.914Z,1.47
2023-01-29T04:48:31.110Z,1.42
2023-01-29T04:51:55.945Z,1.55
2023-01-29T04:55:17.627Z,1.36
2023-01-29T04:58:41.064Z,1.55
2023-01-29T05:01:44.857Z,1.41
2023-01-29T05:04:48.381Z,1.38
2023-01-29T05:07:50.780Z,1.64
2023-01-29T05:10:55.256Z,1.80
2023-01-29T05:13:58.341Z,1.87
2023-01-29T05:17:03.321Z,1.36
2023-01-29T05:20:06.237Z,1.39
2023-01-29T05:23:26.809Z,1.44
2023-01-29T05:26:47.227Z,1.47
2023-01-29T05:29:49.345Z,1.38
2023-01-29T05:32:51.595Z,1.52
2023-01-29T05:35:55.490Z,1.61
2023-01-29T05:38:58.002Z,1.42
2023-01-29T05:42:00.007Z,1.22
2023-01-29T05:45:01.891Z,1.12
2023-01-29T05:48:03.995Z,1.21
2023-01-29T05:51:07.092Z,1.14
2023-01-29T05:54:12.589Z,1.17
2023-01-29T05:57:15.372Z,1.25
2023-01-29T06:00:17.825Z,1.41
2023-01-29T06:03:21.109Z,1.38
2023-01-29T06:06:22.975Z,1.26
2023-01-29T06:09:25.011Z,1.13
2023-01-29T06:12:27.839Z,1.24
2023-01-29T06:15:29.718Z,1.06
2023-01-29T06:18:31.619Z,1.10
2023-01-29T06:21:34.118Z,1.18
2023-01-29T06:24:36.705Z,1.11
2023-01-29T06:27:39.025Z,1.16
2023-01-29T06:30:41.355Z,1.00
2023-01-29T06:33:43.444Z,0.95
2023-01-29T06:36:45.413Z,1.14
2023-01-29T06:39:47.430Z,1.13
2023-01-29T06:42:49.418Z,0.97
2023-01-29T06:45:55.024Z,1.01
2023-01-29T06:49:01.153Z,1.18
2023-01-29T06:52:03.470Z,1.21
2023-01-29T06:55:06.186Z,1.34
2023-01-29T06:58:10.036Z,1.21
2023-01-29T07:01:29.073Z,1.25
2023-01-29T07:04:35.708Z,1.12
2023-01-29T07:07:37.827Z,1.19
2023-01-29T07:10:41.759Z,1.20
2023-01-29T07:13:44.168Z,1.04
2023-01-29T07:16:46.477Z,0.90
2023-01-29T07:19:48.494Z,0.87
2023-01-29T07:22:50.845Z,1.13
2023-01-29T07:25:53.008Z,1.11
2023-01-29T07:28:55.393Z,1.15
2023-01-29T07:31:57.294Z,0.93
2023-01-29T07:34:59.500Z,0.92
2023-01-29T07:38:01.523Z,1.11
2023-01-29T07:41:03.699Z,1.15
2023-01-29T07:44:05.832Z,1.17
2023-01-29T07:47:09.492Z,0.87
2023-01-29T07:50:14.452Z,0.81
2023-01-29T07:53:17.268Z,1.07
2023-01-29T07:56:19.357Z,1.16
2023-01-29T07:59:22.056Z,1.17
2023-01-29T08:02:24.360Z,1.29
2023-01-29T08:05:26.538Z,1.25
2023-01-29T08:08:28.627Z,1.49
2023-01-29T08:11:30.878Z,1.31
2023-01-29T08:14:33.145Z,1.05
2023-01-29T08:17:36.028Z,1.24
2023-01-29T08:20:47.064Z,1.36
2023-01-29T08:23:49.336Z,1.36
2023-01-29T08:26:51.319Z,1.28
2023-01-29T08:29:53.454Z,1.39
2023-01-29T08:32:55.596Z,1.23
2023-01-29T08:36:00.494Z,1.17
2023-01-29T08:39:02.929Z,1.08
2023-01-29T08:42:05.438Z,1.06
2023-01-29T08:45:08.005Z,1.18
2023-01-29T08:48:10.619Z,1.39
2023-01-29T08:51:13.126Z,1.28
2023-01-29T08:54:17.262Z,1.12
2023-01-29T08:57:19.611Z,1.14
2023-01-29T09:00:22.282Z,1.05
2023-01-29T09:03:25.236Z,1.29
2023-01-29T09:06:27.377Z,1.22
2023-01-29T09:09:29.785Z,1.56
2023-01-29T09:12:32.193Z,1.53
2023-01-29T09:15:34.388Z,1.40
2023-01-29T09:18:37.226Z,1.05
2023-01-29T09:21:39.271Z,1.07
2023-01-29T09:24:41.528Z,1.28
2023-01-29T09:27:45.934Z,1.12
2023-01-29T09:30:49.367Z,1.02
2023-01-29T09:33:53.897Z,1.09
2023-01-29T09:36:56.019Z,1.00
2023-01-29T09:39:58.133Z,0.97
2023-01-29T09:43:09.640Z,0.95
2023-01-29T09:46:20.594Z,1.10
2023-01-29T09:49:41.827Z,0.99
2023-01-29T09:52:59.767Z,0.89
2023-01-29T09:56:06.251Z,1.23
2023-01-29T09:59:16.279Z,1.01
2023-01-29T10:02:41.209Z,1.40
2023-01-29T10:06:04.280Z,1.70
2023-01-29T10:09:43.844Z,1.49
2023-01-29T10:13:13.730Z,1.24
2023-01-29T10:16:31.634Z,1.26
2023-01-29T10:19:52.346Z,1.28
2023-01-29T10:23:21.279Z,1.35
2023-01-29T10:26:27.610Z,1.18
2023-01-29T10:29:31.632Z,1.14
2023-01-29T10:32:37.319Z,1.05
2023-01-29T10:35:46.587Z,1.13
2023-01-29T10:38:51.194Z,1.01
2023-01-29T10:42:30.383Z,1.08
2023-01-29T10:45:43.665Z,0.92
2023-01-29T10:48:55.226Z,0.94
2023-01-29T10:52:08.631Z,0.94
2023-01-29T10:55:29.515Z,1.14
2023-01-29T10:58:42.197Z,1.07
2023-01-29T11:01:44.420Z,0.99
2023-01-29T11:04:46.766Z,1.10
2023-01-29T11:07:55.164Z,0.92
2023-01-29T11:11:03.361Z,0.97
2023-01-29T11:14:10.537Z,1.07
2023-01-29T11:17:23.491Z,0.89
2023-01-29T11:20:28.456Z,1.04
2023-01-29T11:23:35.123Z,1.14
2023-01-29T11:26:42.376Z,0.97
2023-01-29T11:29:48.625Z,1.11
2023-01-29T11:32:59.371Z,1.31
2023-01-29T11:36:21.094Z,1.20
2023-01-29T11:39:24.654Z,1.13
2023-01-29T11:42:32.006Z,1.15
2023-01-29T11:45:38.687Z,0.98
2023-01-29T11:48:51.577Z,1.04
2023-01-29T11:51:56.111Z,1.06
2023-01-29T11:55:05.774Z,1.10
2023-01-29T11:58:30.025Z,1.01
2023-01-29T12:01:41.340Z,0.93
2023-01-29T12:04:43.744Z,1.24
2023-01-29T12:07:51.937Z,1.25
2023-01-29T12:11:09.151Z,1.46
2023-01-29T12:14:34.443Z,1.56
2023-01-29T12:17:39.608Z,1.15
2023-01-29T12:20:47.933Z,1.15
2023-01-29T12:24:03.572Z,1.47
2023-01-29T12:27:18.365Z,1.35
2023-01-29T12:30:35.509Z,1.29
2023-01-29T12:33:57.097Z,1.40
2023-01-29T12:37:26.136Z,1.63
2023-01-29T12:41:11.801Z,1.51
2023-01-29T12:44:21.087Z,1.46
2023-01-29T12:47:23.346Z,1.59
2023-01-29T12:50:33.227Z,1.27
2023-01-29T12:53:41.812Z,1.21
2023-01-29T12:56:56.483Z,1.46
2023-01-29T13:00:22.619Z,1.38
2023-01-29T13:03:53.747Z,1.36
2023-01-29T13:07:07.068Z,1.06
2023-01-29T13:10:17.137Z,1.26
2023-01-29T13:14:00.239Z,1.36
2023-01-29T13:17:14.132Z,1.03
2023-01-29T13:20:24.445Z,1.63
2023-01-29T13:23:35.067Z,2.06
2023-01-29T13:26:38.121Z,1.72
2023-01-29T13:29:40.347Z,1.68
2023-01-29T13:32:42.496Z,1.49
2023-01-29T13:35:46.440Z,1.55
2023-01-29T13:39:00.519Z,1.32
2023-01-29T13:42:20.478Z,1.54
2023-01-29T13:45:37.101Z,1.72
2023-01-29T13:48:46.853Z,1.49
2023-01-29T13:51:49.001Z,1.41
2023-01-29T13:54:57.612Z,1.14
2023-01-29T13:58:05.685Z,0.87
2023-01-29T14:01:08.366Z,0.78
2023-01-29T14:04:19.662Z,0.68
2023-01-29T14:07:50.147Z,0.76
2023-01-29T14:11:15.493Z,0.71
2023-01-29T14:14:49.408Z,0.68
2023-01-29T14:18:22.300Z,0.56
2023-01-29T14:21:29.851Z,0.33
2023-01-29T14:24:35.899Z,0.39
2023-01-29T14:27:40.190Z,0.28
2023-01-29T14:30:48.834Z,0.15
2023-01-29T14:33:53.796Z,-0.07
2023-01-29T14:37:21.337Z,-0.05
2023-01-29T14:40:35.355Z,-0.12
2023-01-29T14:43:37.686Z,-0.08
2023-01-29T14:46:44.141Z,-0.16
2023-01-29T14:49:57.351Z,-0.17
2023-01-29T14:53:06.032Z,-0.31
2023-01-29T14:56:22.289Z,-0.12
2023-01-29T14:59:37.876Z,-0.18
2023-01-29T15:02:45.602Z,-0.33
2023-01-29T15:05:49.764Z,-0.14
2023-01-29T15:09:12.466Z,-0.08
2023-01-29T15:12:34.423Z,0.02
2023-01-29T15:15:57.048Z,-0.10
2023-01-29T15:19:15.152Z,-0.17
2023-01-29T15:22:20.247Z,-0.25
2023-01-29T15:25:22.904Z,-0.37
2023-01-29T15:28:25.368Z,-0.29
2023-01-29T15:31:28.672Z,-0.21
2023-01-29T15:34:30.947Z,-0.24
2023-01-29T15:37:34.733Z,-0.32
2023-01-29T15:40:37.109Z,-0.28
2023-01-29T15:43:44.752Z,-0.39
2023-01-29T15:46:54.822Z,-0.40
2023-01-29T15:49:57.846Z,-0.42
2023-01-29T15:53:07.157Z,-0.38
2023-01-29T15:56:17.035Z,-0.40
2023-01-29T15:59:41.914Z,-0.42
2023-01-29T16:02:44.309Z,-0.42
2023-01-29T16:05:46.783Z,-0.54
2023-01-29T16:08:54.626Z,-0.52
2023-01-29T16:12:00.961Z,-0.53
2023-01-29T16:15:05.433Z,-0.61
2023-01-29T16:18:35.956Z,-0.63
2023-01-29T16:21:44.464Z,-0.59
2023-01-29T16:24:47.945Z,-0.62
2023-01-29T16:27:51.704Z,-0.61
2023-01-29T16:31:02.601Z,-0.60
2023-01-29T16:34:14.473Z,-0.58
2023-01-29T16:37:24.609Z,-0.59
2023-01-29T16:40:33.583Z,-0.61
2023-01-29T16:43:42.212Z,-0.68
2023-01-29T16:46:51.486Z,-0.76
2023-01-29T16:50:00.712Z,-0.79
2023-01-29T16:53:05.764Z,-0.79
2023-01-29T16:56:09.019Z,-0.78
2023-01-29T16:59:18.842Z,-0.80
2023-01-29T17:02:33.471Z,-0.83
2023-01-29T17:05:38.196Z,-0.67
2023-01-29T17:08:44.542Z,-0.82
2023-01-29T17:11:50.386Z,-0.85
2023-01-29T17:14:58.469Z,-0.88
2023-01-29T17:18:03.603Z,-0.96
2023-01-29T17:21:08.161Z,-0.96
2023-01-29T17:24:11.787Z,-1.05
2023-01-29T17:27:23.463Z,-0.95
2023-01-29T17:30:30.543Z,-1.15
2023-01-29T17:33:32.989Z,-1.06
2023-01-29T17:36:37.046Z,-1.09
2023-01-29T17:39:39.949Z,-1.10
2023-01-29T17:42:42.782Z,-1.13
2023-01-29T17:45:45.125Z,-1.14
2023-01-29T17:48:49.593Z,-1.18
2023-01-29T17:51:53.281Z,-1.14
2023-01-29T17:54:55.845Z,-1.26
2023-01-29T17:57:59.140Z,-1.27
2023-01-29T18:01:01.794Z,-1.21
2023-01-29T18:04:04.257Z,-1.25
2023-01-29T18:07:07.231Z,-1.34
2023-01-29T18:10:21.698Z,-1.36
2023-01-29T18:13:24.321Z,-1.50
2023-01-29T18:16:26.595Z,-1.49
2023-01-29T18:19:32.215Z,-1.60
2023-01-29T18:22:34.517Z,-1.54
2023-01-29T18:25:37.687Z,-1.52
2023-01-29T18:28:43.537Z,-1.51
2023-01-29T18:31:48.333Z,-1.51
2023-01-29T18:34:50.614Z,-1.49
2023-01-29T18:37:52.960Z,-1.53
2023-01-29T18:41:04.210Z,-1.52
2023-01-29T18:44:06.650Z,-1.51
2023-01-29T18:47:08.734Z,-1.53
2023-01-29T18:50:12.133Z,-1.51
2023-01-29T18:53:17.173Z,-1.56
2023-01-29T18:56:20.532Z,-1.58
2023-01-29T18:59:23.082Z,-1.70
2023-01-29T19:02:26.575Z,-1.59
2023-01-29T19:05:29.244Z,-1.67
2023-01-29T19:08:32.973Z,-1.55
2023-01-29T19:11:35.223Z,-1.58
2023-01-29T19:14:38.530Z,-1.72
2023-01-29T19:17:41.195Z,-1.63
2023-01-29T19:20:44.094Z,-1.71
2023-01-29T19:23:46.885Z,-1.70
2023-01-29T19:26:51.624Z,-1.71
2023-01-29T19:29:55.962Z,-1.66
2023-01-29T19:32:58.290Z,-1.57
2023-01-29T19:36:01.637Z,-1.62
2023-01-29T19:39:04.484Z,-1.65
2023-01-29T19:42:10.786Z,-1.67
2023-01-29T19:45:13.507Z,-1.78
2023-01-29T19:48:26.482Z,-1.82
2023-01-29T19:51:29.297Z,-1.72
2023-01-29T19:54:37.055Z,-1.68
2023-01-29T19:57:40.342Z,-1.63
2023-01-29T20:00:42.645Z,-1.70
2023-01-29T20:03:48.472Z,-1.84
2023-01-29T20:06:50.832Z,-1.70
2023-01-29T20:09:54.377Z,-1.75
2023-01-29T20:12:56.783Z,-1.65
2023-01-29T20:16:03.224Z,-1.69
2023-01-29T20:19:14.398Z,-1.76
2023-01-29T20:22:17.687Z,-1.71
2023-01-29T20:25:20.191Z,-1.75
2023-01-29T20:28:22.645Z,-1.72
2023-01-29T20:31:25.172Z,-1.73
2023-01-29T20:34:27.203Z,-1.76
2023-01-29T20:37:29.163Z,-1.76
2023-01-29T20:40:31.571Z,-1.88
2023-01-29T20:43:34.675Z,-1.93
2023-01-29T20:46:40.853Z,-1.94
2023-01-29T20:49:43.712Z,-2.02
2023-01-29T20:52:46.384Z,-1.96
2023-01-29T20:55:49.054Z,-1.86
2023-01-29T20:58:52.017Z,-1.85
2023-01-29T21:02:06.388Z,-1.89
2023-01-29T21:05:09.062Z,-1.85
2023-01-29T21:08:12.147Z,-1.78
2023-01-29T21:11:14.700Z,-1.95
2023-01-29T21:14:17.081Z,-2.02
2023-01-29T21:17:19.532Z,-1.97
2023-01-29T21:20:22.041Z,-1.92
2023-01-29T21:23:24.726Z,-1.93
2023-01-29T21:26:27.480Z,-1.80
2023-01-29T21:29:29.727Z,-1.95
2023-01-29T21:32:32.671Z,-2.01
2023-01-29T21:35:37.111Z,-2.05
2023-01-29T21:38:40.366Z,-1.99
2023-01-29T21:42:02.596Z,-2.05
2023-01-29T21:45:05.325Z,-2.06
2023-01-29T21:48:09.209Z,-2.11
2023-01-29T21:51:11.379Z,-2.12
2023-01-29T21:54:15.473Z,-2.15
2023-01-29T21:57:20.380Z,-2.06
2023-01-29T22:00:22.547Z,-2.04
2023-01-29T22:03:24.891Z,-2.04
2023-01-29T22:06:27.049Z,-1.97
2023-01-29T22:09:32.741Z,-2.09
2023-01-29T22:12:38.216Z,-2.21
2023-01-29T22:15:42.729Z,-2.14
2023-01-29T22:18:45.046Z,-2.01
2023-01-29T22:21:47.235Z,-1.93
2023-01-29T22:24:50.925Z,-1.95
2023-01-29T22:27:53.604Z,-2.02
2023-01-29T22:31:05.209Z,-2.03
2023-01-29T22:34:07.561Z,-1.96
2023-01-29T22:37:09.927Z,-1.99
2023-01-29T22:40:13.175Z,-2.00
2023-01-29T22:43:22.894Z,-2.06
2023-01-29T22:46:25.484Z,-2.19
2023-01-29T22:49:31.955Z,-1.91
2023-01-29T22:52:38.505Z,-2.02
2023-01-29T22:55:46.977Z,-1.87
2023-01-29T22:58:56.587Z,-1.85
2023-01-29T23:01:59.925Z,-1.93
2023-01-29T23:05:01.969Z,-1.85
2023-01-29T23:08:03.859Z,-1.86
2023-01-29T23:11:17.895Z,-1.83
2023-01-29T23:14:21.485Z,-1.88
2023-01-29T23:17:25.993Z,-1.90
2023-01-29T23:20:31.917Z,-1.81
2023-01-29T23:23:36.034Z,-1.79
2023-01-29T23:26:57.226Z,-1.83
2023-01-29T23:29:59.938Z,-1.71
2023-01-29T23:33:03.198Z,-1.88
2023-01-29T23:36:07.663Z,-1.81
2023-01-29T23:39:10.233Z,-1.94
2023-01-29T23:42:13.154Z,-2.08
2023-01-29T23:45:15.360Z,-2.01
2023-01-29T23:48:17.929Z,-2.10
2023-01-29T23:51:23.713Z,-2.22
2023-01-29T23:54:26.832Z,-2.34
2023-01-29T23:57:29.372Z,-2.23
